Time;durP1;ratioP1;P1;durP2;ratioP2;P2;SDS_P1;SDS_P2;PMS_P1;PMS_P2;Temp;Humidity;BMP_temperature;BMP_pressure;BME280_temperature;BME280_humidity;BME280_pressure;Samples;Min_cycle;Max_cycle;Signal;HPM_P1;HPM_P2
2022/08/27 00:00:52;;;;;;;8.40;6.00;;;;;;;20.88;49.44;99094.38;431430;1271;146654;-61
2022/08/27 00:10:58;;;;;;;10.60;5.90;;;;;;;20.63;49.90;99086.83;431044;1270;144460;-64
2022/08/27 00:21:04;;;;;;;6.90;5.80;;;;;;;20.42;50.37;99083.27;431096;1274;141735;-63
2022/08/27 00:31:11;;;;;;;6.40;5.40;;;;;;;20.28;50.65;99093.41;430631;1273;140945;-60
2022/08/27 00:41:19;;;;;;;10.80;6.50;;;;;;;20.17;51.04;99092.50;431306;1273;142815;-61
2022/08/27 00:51:26;;;;;;;6.80;6.20;;;;;;;20.07;51.52;99083.88;432341;1274;141384;-64
2022/08/27 01:02:17;;;;;;;6.80;6.10;;;;;;;20.01;51.66;99075.23;431824;1274;141666;-63
2022/08/27 01:12:00;;;;;;;8.20;6.30;;;;;;;19.98;51.60;99072.35;430853;1272;141206;-62
2022/08/27 01:22:12;;;;;;;10.00;6.20;;;;;;;19.92;51.58;99067.88;431315;1271;141225;-64
2022/08/27 01:32:30;;;;;;;8.50;6.10;;;;;;;19.90;51.68;99065.74;430577;1270;142456;-63
2022/08/27 01:42:38;;;;;;;7.10;5.50;;;;;;;19.86;51.81;99076.45;431221;1271;141662;-62
2022/08/27 01:52:43;;;;;;;;;;;;;;;19.80;51.92;99084.95;429821;1271;143894;-62
2022/08/27 02:02:50;;;;;;;8.70;6.20;;;;;;;19.63;52.30;99098.05;431223;1271;138410;-62
2022/08/27 02:12:56;;;;;;;8.10;6.10;;;;;;;19.47;52.73;99104.55;430433;1271;141653;-62
2022/08/27 02:23:03;;;;;;;8.00;5.90;;;;;;;19.30;53.16;99103.59;429447;1271;142736;-61
2022/08/27 02:33:09;;;;;;;9.60;5.70;;;;;;;19.15;53.81;99093.30;430519;1271;142600;-63
2022/08/27 02:43:15;;;;;;;7.00;6.20;;;;;;;18.98;54.26;99092.89;430526;1271;141374;-63
2022/08/27 02:53:30;;;;;;;8.30;5.60;;;;;;;18.87;54.36;99088.01;429817;1271;143681;-63
2022/08/27 03:03:36;;;;;;;7.20;6.40;;;;;;;18.82;54.60;99083.05;430437;1271;142596;-59
2022/08/27 03:13:45;;;;;;;9.50;7.30;;;;;;;18.78;54.63;99072.50;429796;1271;144833;-64
2022/08/27 03:23:52;;;;;;;9.60;6.50;;;;;;;18.74;54.75;99072.59;430465;1271;143509;-61
2022/08/27 03:34:01;;;;;;;8.90;6.50;;;;;;;18.71;54.84;99071.30;430818;1271;142052;-60
2022/08/27 03:44:07;;;;;;;11.90;7.10;;;;;;;18.70;55.08;99071.36;429780;1271;142266;-62
2022/08/27 03:54:13;;;;;;;8.70;6.50;;;;;;;18.68;55.62;99070.89;430642;1271;143353;-61
2022/08/27 04:04:18;;;;;;;7.10;6.40;;;;;;;18.64;56.62;99071.98;430463;1271;143365;-62
2022/08/27 04:14:24;;;;;;;7.70;6.10;;;;;;;18.78;56.53;99072.50;430498;1271;142016;-58
2022/08/27 04:24:33;;;;;;;10.00;6.70;;;;;;;19.27;55.62;99066.80;431022;1271;141679;-62
2022/08/27 04:34:39;;;;;;;8.30;6.40;;;;;;;19.89;54.96;99063.52;432280;1271;141671;-61
2022/08/27 04:44:46;;;;;;;7.50;5.90;;;;;;;20.49;55.23;99068.10;432045;1271;185363;-60
2022/08/27 04:54:53;;;;;;;7.40;6.60;;;;;;;21.11;54.14;99071.35;431731;1271;142977;-61
2022/08/27 05:04:59;;;;;;;8.10;6.00;;;;;;;21.85;52.75;99081.34;431386;1271;143325;-61
2022/08/27 05:15:08;;;;;;;7.20;6.20;;;;;;;22.89;51.03;99081.02;430391;1271;143241;-60
2022/08/27 05:25:12;;;;;;;;;;;;;;;25.30;48.78;99078.27;432277;1271;143547;-59
2022/08/27 05:35:18;;;;;;;7.80;5.30;;;;;;;32.45;41.47;99066.48;430260;1271;129901;-61
2022/08/27 05:45:24;;;;;;;7.10;6.20;;;;;;;34.37;35.79;99068.58;433445;1271;142330;-63
2022/08/27 05:55:28;;;;;;;;;;;;;;;34.91;34.03;99068.10;430326;1271;143254;-61
2022/08/27 06:05:34;;;;;;;6.00;5.50;;;;;;;34.21;33.38;99071.65;446812;1270;128995;-62
2022/08/27 06:15:40;;;;;;;7.00;5.40;;;;;;;36.13;31.96;99066.83;438884;1271;142929;-61
2022/08/27 06:25:46;;;;;;;5.50;5.10;;;;;;;39.43;29.94;99066.33;430220;1271;200828;-62
2022/08/27 06:35:52;;;;;;;7.30;5.00;;;;;;;44.14;25.79;99062.42;429651;1271;1551169;-61
2022/08/27 06:46:01;;;;;;;6.20;5.20;;;;;;;46.38;23.20;99061.22;430782;1271;141989;-61
2022/08/27 06:56:12;;;;;;;7.70;5.20;;;;;;;47.53;21.24;99064.13;430271;1271;141867;-61
2022/08/27 07:06:18;;;;;;;5.70;5.20;;;;;;;49.00;20.23;99067.60;443839;1271;186312;-62
2022/08/27 07:16:26;;;;;;;5.80;5.30;;;;;;;52.03;18.55;99064.66;447647;1270;142661;-61
2022/08/27 07:26:33;;;;;;;6.70;6.10;;;;;;;53.83;16.94;99053.67;446915;1270;141995;-62
2022/08/27 07:36:39;;;;;;;7.30;6.60;;;;;;;54.55;15.59;99051.56;447387;1270;141507;-62
2022/08/27 07:46:47;;;;;;;9.30;7.90;;;;;;;54.99;14.63;99040.41;446893;1270;164938;-62
2022/08/27 07:56:54;;;;;;;9.70;8.90;;;;;;;55.00;13.99;99047.27;447563;1269;141469;-62
2022/08/27 08:07:01;;;;;;;10.80;10.10;;;;;;;55.34;13.77;99048.36;447668;1270;142422;-62
2022/08/27 08:17:07;;;;;;;12.20;11.20;;;;;;;56.21;12.94;99053.13;446747;1270;143683;-62
2022/08/27 08:27:15;;;;;;;8.20;7.00;;;;;;;55.69;13.29;99054.02;447385;1271;142841;-61
2022/08/27 08:37:22;;;;;;;5.10;4.70;;;;;;;51.62;13.94;99055.09;447573;1271;202548;-62
2022/08/27 08:47:32;;;;;;;5.00;4.50;;;;;;;44.27;17.34;99057.54;446920;1271;141751;-62
2022/08/27 08:57:43;;;;;;;5.40;4.90;;;;;;;39.83;20.55;99067.14;447648;1271;142476;-61
2022/08/27 09:07:58;;;;;;;5.30;4.60;;;;;;;38.07;22.65;99061.30;432770;1271;183956;-62
2022/08/27 09:18:24;;;;;;;11.00;5.50;;;;;;;37.43;23.51;99068.97;430758;1271;141921;-62
2022/08/27 09:39:01;;;;;;;6.70;4.80;;;;;;;35.77;24.05;99061.38;431038;1271;142049;-61
2022/08/27 09:49:13;;;;;;;5.50;4.50;;;;;;;34.98;24.72;99063.84;430830;1271;142035;-63
2022/08/27 09:59:26;;;;;;;5.40;4.50;;;;;;;33.79;25.61;99058.19;430584;1271;144554;-61
2022/08/27 10:09:34;;;;;;;4.70;3.50;;;;;;;33.36;25.72;99053.10;430424;1271;142515;-63
2022/08/27 10:19:53;;;;;;;6.80;3.90;;;;;;;32.98;26.00;99055.38;430724;1271;144555;-63
2022/08/27 10:30:07;;;;;;;6.30;3.70;;;;;;;32.47;26.53;99051.77;430219;1271;146600;-64
2022/08/27 10:40:22;;;;;;;5.80;3.60;;;;;;;32.30;27.27;99049.77;430519;1271;146525;-61
2022/08/27 10:50:35;;;;;;;4.30;3.90;;;;;;;31.92;26.90;99048.74;430259;1271;141893;-64
2022/08/27 11:00:48;;;;;;;3.90;3.50;;;;;;;31.84;27.79;99045.73;430895;1271;144767;-59
2022/08/27 11:10:58;;;;;;;7.10;5.00;;;;;;;31.65;27.88;99048.81;430157;1271;142228;-59
2022/08/27 11:21:33;;;;;;;4.00;3.30;;;;;;;31.31;27.08;99054.58;430694;1271;141347;-62
2022/08/27 11:31:48;;;;;;;10.30;4.60;;;;;;;31.10;27.29;99047.70;431540;1271;141869;-60
2022/08/27 11:42:09;;;;;;;6.40;3.10;;;;;;;30.95;27.03;99042.80;430682;1271;197220;-59
2022/08/27 11:52:25;;;;;;;8.60;4.20;;;;;;;30.98;27.68;99036.29;431016;1271;140014;-59
2022/08/27 12:02:34;;;;;;;5.10;3.90;;;;;;;31.28;27.61;99026.50;429681;1271;142827;-60
2022/08/27 12:12:51;;;;;;;5.50;3.40;;;;;;;31.48;27.54;99021.80;430634;1271;141743;-60
2022/08/27 12:33:41;;;;;;;7.10;4.50;;;;;;;30.88;27.44;99016.09;430735;1271;143095;-57
2022/08/27 12:43:47;;;;;;;7.00;4.90;;;;;;;30.91;28.44;99000.58;429756;1271;142507;-59
2022/08/27 12:54:01;;;;;;;11.90;4.50;;;;;;;30.96;27.98;98998.80;430362;1271;143707;-59
2022/08/27 13:04:15;;;;;;;7.00;3.90;;;;;;;30.71;27.75;98996.24;431238;1271;141977;-61
2022/08/27 13:14:22;;;;;;;8.40;3.90;;;;;;;30.72;27.78;98987.05;430586;1271;141794;-60
2022/08/27 13:24:32;;;;;;;6.80;3.90;;;;;;;30.86;27.27;98980.01;430861;1271;142301;-59
2022/08/27 13:34:40;;;;;;;8.00;4.40;;;;;;;30.65;27.67;98981.34;430869;1271;145761;-59
2022/08/27 13:44:46;;;;;;;8.30;4.10;;;;;;;30.46;27.92;98979.61;435869;1271;142276;-60
2022/08/27 13:55:04;;;;;;;4.10;3.70;;;;;;;30.28;27.99;98966.73;433865;1271;142015;-60
2022/08/27 14:05:14;;;;;;;6.00;4.00;;;;;;;30.21;28.29;98964.79;432353;1271;142451;-59
2022/08/27 14:15:23;;;;;;;8.90;3.80;;;;;;;30.26;28.66;98964.88;431418;1271;144067;-60
2022/08/27 14:25:30;;;;;;;7.70;4.60;;;;;;;30.19;28.35;98963.16;431200;1269;199331;-59
2022/08/27 14:35:37;;;;;;;7.50;4.30;;;;;;;30.10;28.25;98957.91;430534;1271;147544;-59
2022/08/27 14:45:45;;;;;;;9.90;4.10;;;;;;;30.00;28.42;98956.91;431830;1271;143301;-58
2022/08/27 14:55:53;;;;;;;8.30;3.70;;;;;;;29.99;28.68;98951.58;431069;1271;181359;-59
2022/08/27 15:05:59;;;;;;;5.20;3.90;;;;;;;29.99;28.82;98949.58;430966;1271;141997;-59
2022/08/27 15:16:06;;;;;;;6.90;4.50;;;;;;;29.87;29.14;98948.66;431023;1271;142934;-60
2022/08/27 15:26:12;;;;;;;9.00;5.00;;;;;;;29.75;30.28;98947.51;431009;1271;146601;-59
2022/08/27 15:36:18;;;;;;;10.30;4.20;;;;;;;29.61;30.74;98951.80;431324;1271;142153;-57
2022/08/27 15:46:24;;;;;;;6.40;4.60;;;;;;;29.48;30.79;98951.14;430679;1271;141033;-58
2022/08/27 15:56:30;;;;;;;7.60;3.90;;;;;;;29.34;31.02;98944.77;430101;1271;142859;-57
2022/08/27 16:06:39;;;;;;;6.90;4.60;;;;;;;29.15;31.39;98948.09;431239;1271;144761;-56
2022/08/27 16:16:48;;;;;;;7.60;5.00;;;;;;;28.94;32.18;98944.32;429691;1271;143927;-57
2022/08/27 16:26:54;;;;;;;11.30;5.40;;;;;;;28.69;32.75;98943.95;447438;1271;142065;-58
2022/08/27 16:37:00;;;;;;;6.40;4.30;;;;;;;28.49;33.28;98939.78;435622;1271;142131;-58
2022/08/27 16:47:06;;;;;;;7.90;5.10;;;;;;;28.29;34.12;98939.02;430300;1271;145958;-57
2022/08/27 16:57:12;;;;;;;9.20;5.20;;;;;;;27.97;34.72;98943.67;430977;1271;141552;-57
2022/08/27 17:07:21;;;;;;;9.60;6.10;;;;;;;27.60;35.54;98945.72;430961;1271;146622;-57
2022/08/27 17:17:30;;;;;;;9.70;5.30;;;;;;;27.22;36.57;98953.42;430490;1271;144292;-56
2022/08/27 17:27:36;;;;;;;9.30;5.80;;;;;;;26.85;37.32;98962.92;431704;1271;142226;-59
2022/08/27 17:37:43;;;;;;;12.10;6.30;;;;;;;26.44;38.09;98969.85;430684;1272;142985;-56
2022/08/27 17:47:49;;;;;;;11.20;6.40;;;;;;;26.05;39.05;98973.51;431241;1271;141873;-56
2022/08/27 17:57:54;;;;;;;11.50;5.60;;;;;;;25.71;39.85;98983.91;430631;1271;145868;-57
2022/08/27 18:08:00;;;;;;;9.10;5.30;;;;;;;25.39;40.68;98991.92;430108;1271;143238;-58
2022/08/27 18:18:08;;;;;;;8.60;6.00;;;;;;;25.13;41.13;99002.03;430983;1271;142400;-57
2022/08/27 18:28:16;;;;;;;12.10;6.70;;;;;;;24.91;41.79;99008.84;431460;1271;141167;-58
2022/08/27 18:38:22;;;;;;;9.90;6.40;;;;;;;24.72;42.37;99012.84;429558;1271;1378859;-57
2022/08/27 18:48:28;;;;;;;8.40;6.10;;;;;;;24.59;42.93;99015.27;430570;1271;142803;-56
2022/08/27 18:58:37;;;;;;;13.40;6.40;;;;;;;24.43;43.66;99017.77;430831;1271;142666;-56
2022/08/27 19:08:43;;;;;;;12.40;7.50;;;;;;;24.27;44.00;99024.02;430466;1271;146813;-58
2022/08/27 19:18:49;;;;;;;11.80;7.40;;;;;;;24.09;44.28;99032.25;431095;1271;145545;-56
2022/08/27 19:28:55;;;;;;;8.80;7.80;;;;;;;23.89;44.70;99030.34;430278;1271;142195;-58
2022/08/27 19:39:02;;;;;;;12.90;10.10;;;;;;;23.68;45.17;99029.36;430507;1271;146349;-57
2022/08/27 19:49:08;;;;;;;11.70;9.30;;;;;;;23.49;45.47;99027.29;431246;1271;141890;-58
2022/08/27 19:59:14;;;;;;;13.30;7.80;;;;;;;23.38;45.43;99027.59;429744;1271;145783;-57
2022/08/27 20:09:26;;;;;;;17.90;10.10;;;;;;;23.27;45.38;99030.29;430249;1271;142916;-55
2022/08/27 20:19:32;;;;;;;12.80;7.60;;;;;;;23.13;45.14;99040.35;430519;1271;142838;-55
2022/08/27 20:29:39;;;;;;;10.90;7.70;;;;;;;23.03;45.24;99035.16;430748;1271;142148;-56
2022/08/27 20:39:46;;;;;;;10.20;9.00;;;;;;;22.93;45.09;99031.75;431817;1271;141088;-58
2022/08/27 20:49:52;;;;;;;12.40;8.70;;;;;;;22.81;44.95;99024.05;430009;1271;142402;-57
2022/08/27 21:10:24;;;;;;;13.90;8.30;;;;;;;22.46;45.68;99024.09;430448;1271;142471;-56
2022/08/27 21:20:31;;;;;;;13.40;8.40;;;;;;;22.28;46.18;99029.55;429787;1271;144846;-57
2022/08/27 21:30:37;;;;;;;16.60;9.60;;;;;;;22.13;46.57;99036.92;430839;1271;142704;-59
2022/08/27 21:40:43;;;;;;;17.00;9.40;;;;;;;21.65;49.52;99042.41;430606;1271;142327;-57
2022/08/27 21:50:49;;;;;;;11.00;9.90;;;;;;;21.18;51.20;99036.60;431526;1271;141348;-57
2022/08/27 22:01:00;;;;;;;14.00;10.70;;;;;;;20.96;51.36;99027.95;431556;1271;141808;-57
2022/08/27 22:11:05;;;;;;;;;;;;;;;20.75;52.11;99024.27;430536;1271;146143;-57
2022/08/27 22:21:11;;;;;;;14.20;10.10;;;;;;;20.54;52.74;99012.58;431328;1271;129196;-57
2022/08/27 22:31:17;;;;;;;13.30;10.40;;;;;;;20.34;53.81;99017.54;430885;1271;142628;-57
2022/08/27 22:41:23;;;;;;;12.80;10.10;;;;;;;19.97;56.17;99016.55;430520;1273;141738;-56
2022/08/27 22:51:29;;;;;;;15.90;11.00;;;;;;;19.56;57.40;99021.34;431522;1271;142475;-58
2022/08/27 23:01:35;;;;;;;16.40;10.90;;;;;;;19.30;58.29;99014.33;431176;1271;141666;-57
2022/08/27 23:11:42;;;;;;;14.30;12.10;;;;;;;19.14;59.27;99011.55;431362;1271;142923;-58
2022/08/27 23:21:48;;;;;;;18.80;11.90;;;;;;;19.01;59.75;99007.97;430924;1271;142233;-57
2022/08/27 23:31:57;;;;;;;14.00;11.90;;;;;;;18.87;60.70;99015.66;430692;1271;144044;-58
2022/08/27 23:42:03;;;;;;;13.60;10.60;;;;;;;18.72;61.07;99021.05;431326;1271;143593;-57
2022/08/27 23:52:09;;;;;;;15.10;10.60;;;;;;;18.56;61.83;99023.26;430931;1270;147541;-59
